Terminal Aerodrome Forecast
Issued by NWS

Home | Current Version | Previous Version | Text Only | Print | Product List | Glossary On
Versions: 1 2 3 4 5 6 7 8 9 10 11 12 13 14 15 16 17 18 19 20
000
FTUS44 KLZK 192300
TAFPBF
TAF
KPBF 192340Z 2000/2024 00000KT P6SM SKC
     FM201000 00000KT 5SM BR SCT250
      TEMPO 2010/2013 2SM BR
     FM201400 15005KT P6SM SCT045 SCT250=

USA.gov is the U.S. government's official web portal to all federal, state and local government web resources and services.